Time;durP1;ratioP1;P1;durP2;ratioP2;P2;SDS_P1;SDS_P2;PMS_P1;PMS_P2;Temp;Humidity;BMP_temperature;BMP_pressure;BME280_temperature;BME280_humidity;BME280_pressure;Samples;Min_cycle;Max_cycle;Signal;HPM_P1;HPM_P2
2022/03/04 00:00:57;;;;;;;26.40;20.27;;;4.70;70.20;;;;;;2097337;28;20059;-67
2022/03/04 00:01:59;;;;;;;26.90;20.88;;;4.70;70.40;;;;;;2098714;28;20024;-67
2022/03/04 00:03:00;;;;;;;26.85;20.33;;;4.70;70.40;;;;;;2098889;28;20052;-67
2022/03/04 00:04:00;;;;;;;25.15;20.38;;;4.70;70.70;;;;;;2098754;28;20028;-67
2022/03/04 00:05:01;;;;;;;27.65;20.33;;;4.70;71.00;;;;;;2095261;28;20033;-67
2022/03/04 00:06:02;;;;;;;28.05;20.23;;;4.60;71.10;;;;;;2096671;28;20082;-67
2022/03/04 00:07:05;;;;;;;27.55;21.02;;;4.60;71.20;;;;;;2095177;28;20021;-67
2022/03/04 00:08:07;;;;;;;27.38;19.55;;;4.60;71.70;;;;;;2100055;28;20055;-67
2022/03/04 00:09:07;;;;;;;27.08;20.60;;;4.60;71.90;;;;;;2099789;28;20024;-67
2022/03/04 00:10:08;;;;;;;25.67;19.45;;;4.60;72.00;;;;;;2098556;28;20017;-67
2022/03/04 00:11:08;;;;;;;33.17;21.42;;;4.60;72.20;;;;;;2098815;28;20559;-67
2022/03/04 00:12:09;;;;;;;26.70;20.00;;;4.50;72.20;;;;;;2095685;28;20057;-67
2022/03/04 00:13:10;;;;;;;30.98;21.15;;;4.50;72.50;;;;;;2096937;28;20064;-67
2022/03/04 00:14:10;;;;;;;27.52;20.85;;;4.50;72.70;;;;;;2095792;28;20547;-67
2022/03/04 00:15:11;;;;;;;26.50;20.17;;;4.50;72.70;;;;;;2097786;28;20074;-67
2022/03/04 00:16:12;;;;;;;27.83;20.25;;;4.50;73.00;;;;;;2100502;28;20414;-67
2022/03/04 00:17:13;;;;;;;26.10;20.05;;;4.50;73.20;;;;;;2100347;28;20024;-67
2022/03/04 00:18:13;;;;;;;28.00;21.30;;;4.50;73.50;;;;;;2095983;28;20028;-67
2022/03/04 00:19:14;;;;;;;29.77;20.65;;;4.50;73.50;;;;;;2097424;28;20028;-67
2022/03/04 00:20:14;;;;;;;30.88;20.88;;;4.40;73.60;;;;;;2096196;28;20064;-67
2022/03/04 00:21:15;;;;;;;27.77;21.02;;;4.50;73.70;;;;;;2094985;28;20037;-67
2022/03/04 00:22:16;;;;;;;25.80;20.73;;;4.50;74.00;;;;;;2095674;28;20036;-67
2022/03/04 00:23:18;;;;;;;30.15;20.80;;;4.50;74.00;;;;;;2100304;28;20024;-67
2022/03/04 00:24:21;;;;;;;27.63;21.17;;;4.40;74.60;;;;;;2100064;28;20028;-67
2022/03/04 00:25:21;;;;;;;28.88;20.88;;;4.50;74.20;;;;;;2095308;28;20468;-67
2022/03/04 00:26:22;;;;;;;29.27;21.27;;;4.40;74.10;;;;;;2098869;28;20502;-67
2022/03/04 00:27:23;;;;;;;27.80;20.45;;;4.40;74.20;;;;;;2098167;28;20038;-67
2022/03/04 00:28:23;;;;;;;30.27;21.27;;;4.40;74.30;;;;;;2098947;28;20427;-67
2022/03/04 00:29:24;;;;;;;27.80;20.52;;;4.40;74.60;;;;;;2094508;28;20029;-67
2022/03/04 00:30:25;;;;;;;25.00;20.35;;;4.40;74.60;;;;;;2093563;28;20116;-67
2022/03/04 00:31:26;;;;;;;28.83;19.65;;;4.40;74.50;;;;;;2091541;28;20083;-67
2022/03/04 00:32:26;;;;;;;27.42;19.80;;;4.40;74.50;;;;;;2100421;28;20758;-67
2022/03/04 00:33:27;;;;;;;29.17;20.02;;;4.40;74.50;;;;;;2099736;28;20539;-67
2022/03/04 00:34:27;;;;;;;26.08;19.88;;;4.40;74.60;;;;;;2099519;28;20099;-67
2022/03/04 00:35:28;;;;;;;23.60;18.67;;;4.40;74.60;;;;;;2095921;28;20110;-67
2022/03/04 00:36:29;;;;;;;25.33;20.55;;;4.40;74.60;;;;;;2098850;28;20028;-67
2022/03/04 00:37:29;;;;;;;25.92;20.25;;;4.40;74.70;;;;;;2097318;28;20483;-67
2022/03/04 00:38:30;;;;;;;25.83;19.50;;;4.40;74.80;;;;;;2093830;28;20029;-67
2022/03/04 00:39:30;;;;;;;25.92;20.05;;;4.40;74.80;;;;;;2100883;28;20060;-67
2022/03/04 00:40:31;;;;;;;24.02;19.42;;;4.40;74.70;;;;;;2099070;28;20476;-67
2022/03/04 00:41:31;;;;;;;24.20;19.98;;;4.40;74.60;;;;;;2097581;28;20036;-67
2022/03/04 00:42:32;;;;;;;27.80;20.30;;;4.30;74.30;;;;;;2098801;28;20024;-67
2022/03/04 00:43:33;;;;;;;24.08;17.73;;;4.30;74.50;;;;;;2098950;28;20457;-67
2022/03/04 00:44:33;;;;;;;25.35;20.80;;;4.30;74.40;;;;;;2097478;28;20035;-67
2022/03/04 00:45:34;;;;;;;27.45;18.15;;;4.30;74.40;;;;;;2093513;28;20074;-67
2022/03/04 00:46:35;;;;;;;24.63;18.42;;;4.30;74.30;;;;;;2094749;28;20031;-67
2022/03/04 00:47:36;;;;;;;26.45;19.00;;;4.30;74.30;;;;;;2100420;28;20376;-67
2022/03/04 00:48:37;;;;;;;29.85;19.98;;;4.30;74.40;;;;;;2099132;28;20024;-67
2022/03/04 00:49:38;;;;;;;24.85;18.95;;;4.20;74.40;;;;;;2100748;28;20507;-67
2022/03/04 00:50:38;;;;;;;26.38;19.30;;;4.20;74.30;;;;;;2098130;28;20020;-67
2022/03/04 00:51:39;;;;;;;26.15;20.33;;;4.20;74.30;;;;;;2095732;28;20097;-67
2022/03/04 00:52:39;;;;;;;24.80;20.42;;;4.20;74.60;;;;;;2097463;28;20029;-67
2022/03/04 00:53:41;;;;;;;25.58;19.75;;;4.20;74.80;;;;;;2097176;28;20449;-67
2022/03/04 00:54:41;;;;;;;25.05;20.02;;;4.20;75.00;;;;;;2099056;28;20107;-67
2022/03/04 00:55:42;;;;;;;24.40;19.13;;;4.10;75.30;;;;;;2100327;28;20025;-67
2022/03/04 00:56:42;;;;;;;23.95;18.73;;;4.10;75.20;;;;;;2099023;28;20029;-67
2022/03/04 00:57:43;;;;;;;30.00;20.13;;;4.10;75.20;;;;;;2098563;28;20123;-67
2022/03/04 00:58:44;;;;;;;26.67;19.30;;;4.00;75.30;;;;;;2092706;28;20028;-67
2022/03/04 00:59:44;;;;;;;23.33;18.23;;;4.00;75.50;;;;;;2094371;28;20024;-67
2022/03/04 01:00:45;;;;;;;25.13;19.80;;;4.00;75.30;;;;;;2096988;28;20036;-67
2022/03/04 01:01:45;;;;;;;24.80;18.83;;;4.00;75.30;;;;;;2093618;28;20021;-67
2022/03/04 01:02:46;;;;;;;23.98;19.55;;;4.00;75.50;;;;;;2098750;28;20024;-67
2022/03/04 01:03:47;;;;;;;30.17;20.33;;;3.90;75.40;;;;;;2100392;28;20480;-67
2022/03/04 01:04:47;;;;;;;23.65;19.25;;;3.90;75.40;;;;;;2098274;28;20048;-67
2022/03/04 01:05:48;;;;;;;27.85;19.73;;;3.90;75.30;;;;;;2096532;28;20070;-67
2022/03/04 01:06:49;;;;;;;25.83;19.73;;;3.90;75.50;;;;;;2094634;28;20099;-67
2022/03/04 01:07:49;;;;;;;24.52;19.45;;;3.90;75.60;;;;;;2095087;28;20024;-67
2022/03/04 01:08:50;;;;;;;25.70;19.60;;;3.80;75.60;;;;;;2096352;28;20048;-67
2022/03/04 01:09:51;;;;;;;22.48;17.67;;;3.80;75.70;;;;;;2093197;28;20039;-67
2022/03/04 01:10:51;;;;;;;22.08;18.65;;;3.70;75.60;;;;;;2100337;28;20031;-67
2022/03/04 01:11:52;;;;;;;24.67;17.73;;;3.80;75.60;;;;;;2099949;28;20150;-67
2022/03/04 01:12:53;;;;;;;21.20;18.45;;;3.70;75.40;;;;;;2098299;28;20383;-67
2022/03/04 01:13:53;;;;;;;25.20;19.55;;;3.70;75.60;;;;;;2096786;28;20028;-67
2022/03/04 01:14:55;;;;;;;23.48;18.77;;;3.70;75.70;;;;;;2095962;28;20021;-67
2022/03/04 01:15:56;;;;;;;23.55;19.83;;;3.60;75.60;;;;;;2094689;28;20032;-67
2022/03/04 01:16:56;;;;;;;26.83;20.30;;;3.60;75.80;;;;;;2095927;28;20044;-67
2022/03/04 01:17:57;;;;;;;25.70;18.17;;;3.60;76.00;;;;;;2092710;28;20024;-67
2022/03/04 01:18:58;;;;;;;26.20;19.08;;;3.60;75.90;;;;;;2093311;28;20389;-67
2022/03/04 01:19:58;;;;;;;25.77;19.35;;;3.50;76.20;;;;;;2096233;28;20028;-67
2022/03/04 01:20:59;;;;;;;26.25;19.02;;;3.50;76.20;;;;;;2097368;28;20107;-67
2022/03/04 01:22:00;;;;;;;25.10;18.75;;;3.50;76.40;;;;;;2098816;28;20565;-67
2022/03/04 01:23:01;;;;;;;23.90;18.00;;;3.50;76.50;;;;;;2095934;28;20032;-67
2022/03/04 01:24:02;;;;;;;22.40;18.55;;;3.50;76.70;;;;;;2094521;28;20473;-67
2022/03/04 01:25:03;;;;;;;26.13;18.25;;;3.40;76.70;;;;;;2095319;28;20036;-67
2022/03/04 01:26:04;;;;;;;23.15;18.23;;;3.40;76.80;;;;;;2099545;28;20645;-67
2022/03/04 01:27:05;;;;;;;22.83;19.00;;;3.40;77.00;;;;;;2099883;28;20491;-67
2022/03/04 01:28:05;;;;;;;22.42;18.00;;;3.40;77.50;;;;;;2096161;28;20477;-67
2022/03/04 01:29:06;;;;;;;26.45;19.48;;;3.30;77.60;;;;;;2097386;28;20025;-67
2022/03/04 01:30:10;;;;;;;27.70;20.23;;;3.30;77.80;;;;;;2098583;28;20031;-67
2022/03/04 01:31:12;;;;;;;23.65;18.90;;;3.30;78.40;;;;;;2097230;28;20073;-67
2022/03/04 01:32:13;;;;;;;26.90;19.33;;;3.30;78.60;;;;;;2095100;28;20042;-67
2022/03/04 01:33:13;;;;;;;26.42;20.35;;;3.20;78.70;;;;;;2094155;28;20028;-67
2022/03/04 01:34:14;;;;;;;24.00;19.27;;;3.20;79.00;;;;;;2098784;28;20039;-67
2022/03/04 01:35:14;;;;;;;26.80;19.02;;;3.20;79.10;;;;;;2099824;28;20338;-67
2022/03/04 01:36:15;;;;;;;27.85;19.65;;;3.10;79.10;;;;;;2099066;28;20037;-67
2022/03/04 01:37:16;;;;;;;21.98;18.48;;;3.10;79.30;;;;;;2098243;28;20033;-67
2022/03/04 01:38:16;;;;;;;25.33;19.33;;;3.10;79.40;;;;;;2097292;28;20412;-67
2022/03/04 01:39:17;;;;;;;25.48;19.42;;;3.10;79.50;;;;;;2097039;28;20082;-67
2022/03/04 01:40:17;;;;;;;26.10;19.60;;;3.10;79.40;;;;;;2094992;28;20479;-67
2022/03/04 01:41:18;;;;;;;22.83;18.00;;;3.00;79.50;;;;;;2092928;28;20029;-67
2022/03/04 01:42:19;;;;;;;23.88;19.02;;;3.00;79.40;;;;;;2099599;28;20540;-67
2022/03/04 01:43:19;;;;;;;27.17;19.42;;;3.00;79.50;;;;;;2099744;28;20043;-67
2022/03/04 01:44:20;;;;;;;24.50;18.75;;;3.00;79.70;;;;;;2098929;28;20116;-67
2022/03/04 01:45:21;;;;;;;24.63;19.40;;;3.00;80.70;;;;;;2097786;28;20028;-67
2022/03/04 01:46:27;;;;;;;23.42;19.02;;;3.00;80.40;;;;;;2096328;28;20025;-67
2022/03/04 01:47:28;;;;;;;26.48;18.98;;;2.90;81.10;;;;;;2096133;28;20123;-67
2022/03/04 01:48:28;;;;;;;23.55;18.92;;;2.90;81.00;;;;;;2093828;28;20055;-67
2022/03/04 01:49:29;;;;;;;23.70;18.23;;;2.90;81.20;;;;;;2098769;28;20040;-67
2022/03/04 01:50:30;;;;;;;24.75;17.65;;;2.90;81.10;;;;;;2099913;28;20107;-67
2022/03/04 01:51:31;;;;;;;24.75;19.88;;;2.80;81.00;;;;;;2098977;28;20598;-67
2022/03/04 01:52:31;;;;;;;26.17;19.88;;;2.80;81.30;;;;;;2099503;28;20117;-67
2022/03/04 01:53:32;;;;;;;22.67;18.63;;;2.80;81.80;;;;;;2096846;28;20020;-66
2022/03/04 01:54:33;;;;;;;22.55;19.15;;;2.80;82.00;;;;;;2094844;28;20127;-66
2022/03/04 01:55:33;;;;;;;22.55;17.88;;;2.70;81.80;;;;;;2096313;28;20042;-66
2022/03/04 01:56:34;;;;;;;24.08;18.90;;;2.80;82.00;;;;;;2093500;28;20028;-66
2022/03/04 01:57:36;;;;;;;24.63;19.10;;;2.70;81.80;;;;;;2097803;28;20024;-66
2022/03/04 01:58:36;;;;;;;25.13;18.77;;;2.70;82.60;;;;;;2091723;28;20021;-66
2022/03/04 01:59:37;;;;;;;23.73;19.00;;;2.70;81.90;;;;;;2091172;28;20070;-66
2022/03/04 02:00:38;;;;;;;23.38;18.85;;;2.70;82.40;;;;;;2096974;28;20017;-66
2022/03/04 02:01:38;;;;;;;26.60;18.30;;;2.60;82.70;;;;;;2097903;28;20127;-67
2022/03/04 02:02:40;;;;;;;23.45;18.15;;;2.60;83.00;;;;;;2095829;28;20048;-67
2022/03/04 02:03:41;;;;;;;26.40;19.90;;;2.60;83.10;;;;;;2093011;28;20021;-66
2022/03/04 02:04:43;;;;;;;27.88;20.08;;;2.60;83.60;;;;;;2090769;28;20474;-67
2022/03/04 02:05:46;;;;;;;29.60;21.05;;;2.60;84.20;;;;;;2098582;28;20413;-66
2022/03/04 02:06:47;;;;;;;26.70;18.38;;;2.60;84.60;;;;;;2097459;28;20039;-67
2022/03/04 02:07:47;;;;;;;24.15;19.15;;;2.50;84.50;;;;;;2095587;28;20028;-67
2022/03/04 02:08:48;;;;;;;26.98;19.65;;;2.50;84.70;;;;;;2098996;28;20392;-67
2022/03/04 02:09:49;;;;;;;23.55;18.17;;;2.50;84.70;;;;;;2095799;28;20058;-67
2022/03/04 02:10:49;;;;;;;23.90;18.55;;;2.50;84.80;;;;;;2097811;28;20024;-66
2022/03/04 02:11:50;;;;;;;25.48;20.10;;;2.40;84.80;;;;;;2093589;28;20492;-67
2022/03/04 02:12:51;;;;;;;27.40;19.92;;;2.40;85.40;;;;;;2093837;28;20036;-66
2022/03/04 02:13:52;;;;;;;27.48;20.30;;;2.40;85.70;;;;;;2098690;28;20043;-67
2022/03/04 02:14:53;;;;;;;28.08;20.27;;;2.40;86.50;;;;;;2097042;28;20584;-67
2022/03/04 02:15:53;;;;;;;26.52;20.80;;;2.40;86.50;;;;;;2096612;28;20085;-66
2022/03/04 02:16:54;;;;;;;26.13;18.77;;;2.40;87.00;;;;;;2098375;28;20467;-66
2022/03/04 02:17:55;;;;;;;30.05;21.63;;;2.40;87.10;;;;;;2097165;28;20059;-66
2022/03/04 02:18:55;;;;;;;25.90;20.40;;;2.40;88.10;;;;;;2097394;28;20032;-66
2022/03/04 02:19:57;;;;;;;26.52;21.02;;;2.30;89.20;;;;;;2092947;28;20032;-67
2022/03/04 02:21:01;;;;;;;28.80;21.27;;;2.30;90.00;;;;;;2096156;28;20040;-66
2022/03/04 02:22:03;;;;;;;28.52;21.02;;;2.30;90.90;;;;;;2099495;28;20101;-67
2022/03/04 02:23:03;;;;;;;24.67;18.30;;;2.30;90.80;;;;;;2093858;28;20515;-66
2022/03/04 02:24:05;;;;;;;25.27;18.35;;;2.30;90.40;;;;;;2096407;28;20437;-67
2022/03/04 02:25:05;;;;;;;27.65;19.05;;;2.30;90.20;;;;;;2096952;28;20028;-67
2022/03/04 02:26:06;;;;;;;23.10;18.38;;;2.20;90.10;;;;;;2097214;28;20028;-66
2022/03/04 02:27:08;;;;;;;25.80;19.40;;;2.30;90.00;;;;;;2096726;28;20071;-67
2022/03/04 02:28:09;;;;;;;29.05;20.80;;;2.30;89.70;;;;;;2094622;28;20428;-66
2022/03/04 02:29:10;;;;;;;28.23;20.25;;;2.20;90.00;;;;;;2094253;28;20091;-66
2022/03/04 02:30:11;;;;;;;25.08;19.15;;;2.20;90.10;;;;;;2099316;28;20028;-66
2022/03/04 02:31:16;;;;;;;25.13;20.42;;;2.20;90.00;;;;;;2097937;28;20024;-66
2022/03/04 02:32:17;;;;;;;28.10;19.83;;;2.20;90.50;;;;;;2098254;28;20481;-67
2022/03/04 02:33:18;;;;;;;28.52;19.13;;;2.20;90.60;;;;;;2093859;28;20078;-67
2022/03/04 02:34:19;;;;;;;26.13;19.40;;;2.10;90.50;;;;;;2096801;28;20078;-67
2022/03/04 02:35:20;;;;;;;24.38;19.02;;;2.10;90.60;;;;;;2096542;28;20025;-67
2022/03/04 02:36:20;;;;;;;25.27;19.92;;;2.10;90.60;;;;;;2096592;28;20526;-66
2022/03/04 02:37:22;;;;;;;23.83;18.40;;;2.10;90.70;;;;;;2095432;28;20028;-66
2022/03/04 02:38:22;;;;;;;24.83;19.80;;;2.10;90.90;;;;;;2099289;28;20032;-67
2022/03/04 02:39:24;;;;;;;25.80;19.25;;;2.10;90.30;;;;;;2099476;28;20416;-67
2022/03/04 02:40:25;;;;;;;25.67;20.00;;;2.10;90.30;;;;;;2097133;28;20025;-66
2022/03/04 02:41:26;;;;;;;25.90;19.48;;;2.10;90.50;;;;;;2093404;28;20016;-66
2022/03/04 02:42:26;;;;;;;26.13;20.40;;;2.10;90.40;;;;;;2096897;28;20191;-66
2022/03/04 02:43:27;;;;;;;30.35;21.08;;;2.00;90.50;;;;;;2095459;28;20063;-66
2022/03/04 02:44:28;;;;;;;26.60;19.23;;;2.00;90.90;;;;;;2095854;28;20032;-66
2022/03/04 02:45:28;;;;;;;26.73;19.23;;;2.00;90.80;;;;;;2092528;28;20561;-67
2022/03/04 02:46:29;;;;;;;27.05;19.80;;;2.00;90.80;;;;;;2096356;28;20551;-66
2022/03/04 02:47:29;;;;;;;26.77;19.63;;;2.00;90.80;;;;;;2098210;28;20025;-66
2022/03/04 02:48:30;;;;;;;28.45;20.77;;;1.90;91.00;;;;;;2098198;28;20365;-66
2022/03/04 02:49:31;;;;;;;28.77;22.15;;;1.90;91.60;;;;;;2099494;28;20017;-66
2022/03/04 02:50:31;;;;;;;32.05;22.77;;;1.90;92.20;;;;;;2095654;28;20100;-67
2022/03/04 02:51:32;;;;;;;33.92;23.80;;;1.90;92.90;;;;;;2093245;28;20096;-66
2022/03/04 02:52:33;;;;;;;28.80;21.50;;;1.80;93.60;;;;;;2096003;28;20024;-67
2022/03/04 02:53:34;;;;;;;28.83;21.38;;;1.90;94.10;;;;;;2096598;28;20020;-67
2022/03/04 02:54:34;;;;;;;29.85;20.85;;;1.80;94.40;;;;;;2096728;28;20254;-67
2022/03/04 02:55:35;;;;;;;29.55;21.63;;;1.80;94.50;;;;;;2096657;28;20035;-67
2022/03/04 02:56:35;;;;;;;30.63;22.58;;;1.80;94.60;;;;;;2095794;28;20021;-66
2022/03/04 02:57:38;;;;;;;27.35;21.67;;;1.80;95.00;;;;;;2097118;28;20048;-67
2022/03/04 02:58:38;;;;;;;30.00;22.27;;;1.80;95.40;;;;;;2088808;28;20476;-66
2022/03/04 02:59:39;;;;;;;29.63;23.15;;;1.80;95.90;;;;;;2091869;28;20431;-66
2022/03/04 03:00:39;;;;;;;31.25;23.85;;;1.70;96.20;;;;;;2095931;28;20024;-66
2022/03/04 03:01:41;;;;;;;31.55;23.17;;;1.70;97.40;;;;;;2093541;28;20151;-66
2022/03/04 03:02:41;;;;;;;31.92;22.80;;;1.70;97.90;;;;;;2098663;28;20067;-66
2022/03/04 03:03:42;;;;;;;30.23;21.98;;;1.70;98.60;;;;;;2102322;28;20024;-66
2022/03/04 03:04:42;;;;;;;31.30;22.35;;;1.70;98.30;;;;;;2097471;28;20045;-66
2022/03/04 03:05:43;;;;;;;34.53;23.17;;;1.70;98.30;;;;;;2097410;28;20095;-67
2022/03/04 03:06:44;;;;;;;34.85;23.85;;;1.70;98.30;;;;;;2095464;28;20350;-67
2022/03/04 03:07:44;;;;;;;27.92;21.83;;;1.70;99.00;;;;;;2099667;28;20069;-67
2022/03/04 03:08:45;;;;;;;32.00;23.50;;;1.70;99.00;;;;;;2098419;28;20099;-66
2022/03/04 03:09:45;;;;;;;35.50;24.55;;;1.70;99.10;;;;;;2100459;28;20055;-67
2022/03/04 03:10:46;;;;;;;35.33;24.33;;;1.70;99.90;;;;;;2100604;28;20062;-67
2022/03/04 03:11:47;;;;;;;34.97;23.80;;;1.60;99.90;;;;;;2096259;28;20394;-67
2022/03/04 03:12:47;;;;;;;31.85;23.88;;;1.60;99.90;;;;;;2095807;28;20021;-67
2022/03/04 03:13:48;;;;;;;31.83;23.15;;;1.60;99.90;;;;;;2097723;28;20020;-67
2022/03/04 03:14:48;;;;;;;31.85;22.17;;;1.60;99.90;;;;;;2095148;28;20375;-67
2022/03/04 03:15:50;;;;;;;40.15;22.38;;;1.60;99.90;;;;;;2099984;28;20023;-66
2022/03/04 03:16:50;;;;;;;32.45;24.60;;;1.60;99.90;;;;;;2101250;28;20028;-67
2022/03/04 03:17:51;;;;;;;34.63;23.98;;;1.60;99.90;;;;;;2099703;28;20481;-67
2022/03/04 03:18:52;;;;;;;34.90;24.13;;;1.60;99.90;;;;;;2100148;28;20036;-67
2022/03/04 03:19:52;;;;;;;31.13;23.58;;;1.60;99.90;;;;;;2096297;28;20078;-67
2022/03/04 03:20:53;;;;;;;34.10;23.77;;;1.60;99.90;;;;;;2097044;28;20028;-66
2022/03/04 03:21:53;;;;;;;32.35;22.77;;;1.60;99.90;;;;;;2098077;28;20115;-66
2022/03/04 03:22:54;;;;;;;35.85;23.90;;;1.60;99.90;;;;;;2095229;28;20020;-66
2022/03/04 03:23:55;;;;;;;29.85;20.85;;;1.60;99.90;;;;;;2097458;28;20028;-66
2022/03/04 03:24:55;;;;;;;27.88;21.25;;;1.60;99.90;;;;;;2095852;28;20024;-66
2022/03/04 03:25:56;;;;;;;36.08;24.50;;;1.60;99.90;;;;;;2099129;28;20375;-66
2022/03/04 03:26:56;;;;;;;32.47;23.60;;;1.60;99.90;;;;;;2099911;28;20032;-66
2022/03/04 03:27:57;;;;;;;37.90;26.50;;;1.60;99.90;;;;;;2096864;28;20641;-66
2022/03/04 03:28:57;;;;;;;29.45;21.13;;;1.60;99.90;;;;;;2096383;28;20107;-66
2022/03/04 03:29:58;;;;;;;35.15;24.63;;;1.60;99.90;;;;;;2096903;28;20029;-67
2022/03/04 03:30:58;;;;;;;32.47;22.90;;;1.60;99.90;;;;;;2097210;28;20035;-67
2022/03/04 03:32:00;;;;;;;35.10;23.42;;;1.60;99.90;;;;;;2096028;28;20485;-66
2022/03/04 03:33:00;;;;;;;32.38;23.70;;;1.60;99.90;;;;;;2094707;28;20021;-66
2022/03/04 03:34:01;;;;;;;29.92;23.08;;;1.60;99.90;;;;;;2095356;28;20165;-66
2022/03/04 03:35:02;;;;;;;34.78;25.20;;;1.50;99.90;;;;;;2099561;28;20042;-67
2022/03/04 03:36:04;;;;;;;35.10;25.17;;;1.60;99.90;;;;;;2097031;28;20044;-67
2022/03/04 03:37:05;;;;;;;35.33;25.58;;;1.60;99.90;;;;;;2098793;28;20067;-66
2022/03/04 03:38:06;;;;;;;33.83;24.92;;;1.50;99.90;;;;;;2097756;28;20058;-66
2022/03/04 03:39:10;;;;;;;34.95;24.23;;;1.50;99.90;;;;;;2097052;28;20185;-67
2022/03/04 03:40:11;;;;;;;31.55;22.50;;;1.50;99.90;;;;;;2095213;28;20024;-67
2022/03/04 03:41:12;;;;;;;34.40;23.58;;;1.50;99.90;;;;;;2097236;28;20028;-67
2022/03/04 03:42:12;;;;;;;33.30;23.65;;;1.50;99.90;;;;;;2099721;28;20107;-66
2022/03/04 03:43:13;;;;;;;37.45;26.25;;;1.50;99.90;;;;;;2099290;28;20389;-66
2022/03/04 03:44:14;;;;;;;37.10;24.83;;;1.50;99.90;;;;;;2098176;28;20028;-67
2022/03/04 03:45:14;;;;;;;36.65;23.98;;;1.50;99.90;;;;;;2096733;28;20108;-67
2022/03/04 03:46:15;;;;;;;34.03;26.23;;;1.40;99.90;;;;;;2096119;28;20032;-67
2022/03/04 03:47:15;;;;;;;34.03;24.98;;;1.40;99.90;;;;;;2096955;28;20067;-67
2022/03/04 03:48:16;;;;;;;36.05;25.08;;;1.40;99.90;;;;;;2097064;28;20411;-66
2022/03/04 03:49:17;;;;;;;34.40;24.40;;;1.40;99.90;;;;;;2098855;28;20031;-66
2022/03/04 03:50:17;;;;;;;39.47;26.05;;;1.40;99.90;;;;;;2099229;28;20078;-66
2022/03/04 03:51:18;;;;;;;38.28;25.92;;;1.40;99.90;;;;;;2098883;28;20032;-67
2022/03/04 03:52:18;;;;;;;37.40;26.42;;;1.40;99.90;;;;;;2098264;28;20025;-67
2022/03/04 03:53:19;;;;;;;40.55;26.00;;;1.40;99.90;;;;;;2097210;28;20499;-66
2022/03/04 03:54:19;;;;;;;38.78;26.70;;;1.40;99.90;;;;;;2095499;28;20035;-67
2022/03/04 03:55:20;;;;;;;37.33;25.38;;;1.40;99.90;;;;;;2094566;28;20397;-66
2022/03/04 03:56:21;;;;;;;39.72;26.00;;;1.40;99.90;;;;;;2093530;28;20048;-66
2022/03/04 03:57:21;;;;;;;36.15;26.30;;;1.40;99.90;;;;;;2098492;28;20028;-66
2022/03/04 03:58:22;;;;;;;36.97;26.17;;;1.40;99.90;;;;;;2094968;28;20025;-66
2022/03/04 03:59:22;;;;;;;36.38;25.92;;;1.40;99.90;;;;;;2096378;28;20461;-66
2022/03/04 04:00:23;;;;;;;39.15;24.75;;;1.40;99.90;;;;;;2088156;28;20025;-66
2022/03/04 04:01:23;;;;;;;35.85;25.98;;;1.40;99.90;;;;;;2102363;28;20036;-66
2022/03/04 04:02:24;;;;;;;30.60;24.05;;;1.40;99.90;;;;;;2112674;28;20069;-67
2022/03/04 04:03:24;;;;;;;37.13;24.98;;;1.40;99.90;;;;;;2096398;28;20406;-67
2022/03/04 04:04:25;;;;;;;32.72;24.02;;;1.40;99.90;;;;;;2092418;28;20060;-67
2022/03/04 04:05:26;;;;;;;35.75;25.33;;;1.40;99.90;;;;;;2098768;28;20032;-67
2022/03/04 04:06:26;;;;;;;36.88;25.67;;;1.40;99.90;;;;;;2099240;28;20036;-66
2022/03/04 04:07:27;;;;;;;30.52;23.05;;;1.40;99.90;;;;;;2096245;28;20452;-66
2022/03/04 04:08:27;;;;;;;34.28;25.02;;;1.40;99.90;;;;;;2097962;28;20388;-66
2022/03/04 04:09:28;;;;;;;34.80;25.67;;;1.40;99.90;;;;;;2093906;28;20029;-66
2022/03/04 04:10:29;;;;;;;36.92;26.17;;;1.40;99.90;;;;;;2096700;28;20028;-66
2022/03/04 04:11:32;;;;;;;36.83;25.15;;;1.40;99.90;;;;;;2092736;28;20029;-66
2022/03/04 04:12:32;;;;;;;40.15;25.60;;;1.40;99.90;;;;;;2099600;28;20057;-66
2022/03/04 04:13:33;;;;;;;38.05;27.27;;;1.40;99.90;;;;;;2099425;28;20021;-66
2022/03/04 04:14:34;;;;;;;39.15;25.98;;;1.40;99.90;;;;;;2096389;28;20025;-66
2022/03/04 04:15:34;;;;;;;36.15;25.42;;;1.40;99.90;;;;;;2095520;28;20162;-66
2022/03/04 04:16:36;;;;;;;40.00;27.75;;;1.40;99.90;;;;;;2094171;28;20098;-67
2022/03/04 04:17:37;;;;;;;35.60;25.00;;;1.40;99.90;;;;;;2095436;28;20032;-67
2022/03/04 04:18:37;;;;;;;38.05;26.13;;;1.40;99.90;;;;;;2096067;28;20496;-67
2022/03/04 04:19:38;;;;;;;39.03;25.60;;;1.40;99.90;;;;;;2092247;28;20025;-67
2022/03/04 04:20:38;;;;;;;43.17;27.13;;;1.40;99.90;;;;;;2097825;28;20043;-66
2022/03/04 04:21:39;;;;;;;37.08;25.90;;;1.40;99.90;;;;;;2099381;28;20707;-66
2022/03/04 04:22:40;;;;;;;37.28;24.45;;;1.40;99.90;;;;;;2098466;28;20790;-67
2022/03/04 04:23:40;;;;;;;40.45;25.88;;;1.40;99.90;;;;;;2095903;28;20044;-66
2022/03/04 04:24:41;;;;;;;36.40;26.92;;;1.40;99.90;;;;;;2095601;28;20063;-66
2022/03/04 04:25:42;;;;;;;37.42;25.67;;;1.40;99.90;;;;;;2092976;28;20052;-66
2022/03/04 04:26:43;;;;;;;44.08;27.08;;;1.40;99.90;;;;;;2096157;28;20187;-66
2022/03/04 04:27:43;;;;;;;38.53;26.38;;;1.40;99.90;;;;;;2092456;28;20021;-66
2022/03/04 04:28:44;;;;;;;39.60;27.27;;;1.40;99.90;;;;;;2098428;28;20079;-66
2022/03/04 04:29:44;;;;;;;37.75;25.85;;;1.40;99.90;;;;;;2099101;28;20043;-67
2022/03/04 04:30:45;;;;;;;34.95;23.75;;;1.40;99.90;;;;;;2094010;28;20392;-67
2022/03/04 04:31:45;;;;;;;38.00;27.00;;;1.40;99.90;;;;;;2094489;28;20044;-67
2022/03/04 04:32:46;;;;;;;36.15;26.02;;;1.40;99.90;;;;;;2092108;28;20023;-67
2022/03/04 04:33:47;;;;;;;38.45;24.73;;;1.40;99.90;;;;;;2091451;28;20084;-67
2022/03/04 04:34:47;;;;;;;40.20;26.58;;;1.40;99.90;;;;;;2094577;28;20027;-67
2022/03/04 04:35:48;;;;;;;40.03;24.85;;;1.40;99.90;;;;;;2092742;28;20656;-67
2022/03/04 04:36:49;;;;;;;39.40;26.13;;;1.40;99.90;;;;;;2093837;28;20482;-66
2022/03/04 04:37:49;;;;;;;40.97;26.38;;;1.40;99.90;;;;;;2096272;28;20028;-66
2022/03/04 04:38:50;;;;;;;37.45;26.83;;;1.40;99.90;;;;;;2093270;28;20089;-67
2022/03/04 04:39:50;;;;;;;39.97;26.77;;;1.40;99.90;;;;;;2097990;28;20028;-67
2022/03/04 04:40:51;;;;;;;36.10;26.15;;;1.40;99.90;;;;;;2094338;28;20024;-66
2022/03/04 04:41:51;;;;;;;39.28;25.10;;;1.40;99.90;;;;;;2095726;28;20455;-66
2022/03/04 04:42:52;;;;;;;37.65;26.42;;;1.40;99.90;;;;;;2095353;28;20031;-66
2022/03/04 04:43:52;;;;;;;40.50;27.05;;;1.40;99.90;;;;;;2097187;28;20032;-66
2022/03/04 04:44:53;;;;;;;38.83;27.02;;;1.40;99.90;;;;;;2099621;28;20027;-66
2022/03/04 04:45:54;;;;;;;42.58;27.50;;;1.40;99.90;;;;;;2095942;28;20024;-67
2022/03/04 04:46:54;;;;;;;36.67;25.77;;;1.40;99.90;;;;;;2097989;28;20028;-67
2022/03/04 04:47:55;;;;;;;40.85;26.58;;;1.40;99.90;;;;;;2098727;28;20107;-66
2022/03/04 04:48:56;;;;;;;39.65;26.13;;;1.40;99.90;;;;;;2095889;28;20021;-67
2022/03/04 04:49:56;;;;;;;39.13;27.25;;;1.40;99.90;;;;;;2097840;28;20099;-66
2022/03/04 04:51:00;;;;;;;44.05;27.60;;;1.40;99.90;;;;;;2094204;28;20376;-66
2022/03/04 04:52:01;;;;;;;39.60;26.67;;;1.40;99.90;;;;;;2094266;28;20057;-66
2022/03/04 04:53:01;;;;;;;41.78;26.83;;;1.40;99.90;;;;;;2099691;28;20023;-66
2022/03/04 04:54:03;;;;;;;37.13;25.92;;;1.40;99.90;;;;;;2097187;28;20032;-66
2022/03/04 04:55:04;;;;;;;37.28;26.02;;;1.40;99.90;;;;;;2098185;28;20020;-67
2022/03/04 04:56:05;;;;;;;38.22;25.75;;;1.40;99.90;;;;;;2097632;28;20531;-67
2022/03/04 04:57:06;;;;;;;37.17;25.80;;;1.40;99.90;;;;;;2097973;28;20737;-67
2022/03/04 04:58:07;;;;;;;38.20;24.98;;;1.40;99.90;;;;;;2094436;28;20422;-67
2022/03/04 04:59:07;;;;;;;38.08;27.00;;;1.40;99.90;;;;;;2089692;28;20078;-66
2022/03/04 05:00:08;;;;;;;40.13;27.70;;;1.40;99.90;;;;;;2095038;28;20073;-66
2022/03/04 05:01:09;;;;;;;38.63;26.17;;;1.30;99.90;;;;;;2097188;28;20024;-66
2022/03/04 05:02:09;;;;;;;37.25;26.63;;;1.40;99.90;;;;;;2097750;28;20032;-66
2022/03/04 05:03:10;;;;;;;41.30;27.63;;;1.40;99.90;;;;;;2097132;28;20064;-67
2022/03/04 05:04:10;;;;;;;38.35;25.73;;;1.40;99.90;;;;;;2096621;28;20036;-67
2022/03/04 05:05:11;;;;;;;38.75;26.17;;;1.40;99.90;;;;;;2095967;28;20488;-67
2022/03/04 05:06:12;;;;;;;39.45;26.35;;;1.40;99.90;;;;;;2099312;28;20545;-66
2022/03/04 05:07:12;;;;;;;40.78;26.85;;;1.30;99.90;;;;;;2097484;28;20024;-66
2022/03/04 05:08:13;;;;;;;40.95;26.63;;;1.30;99.90;;;;;;2097505;28;20409;-66
2022/03/04 05:09:14;;;;;;;39.53;27.10;;;1.30;99.90;;;;;;2100239;28;20048;-66
2022/03/04 05:10:14;;;;;;;37.15;25.73;;;1.30;99.90;;;;;;2099055;28;20021;-66
2022/03/04 05:11:15;;;;;;;39.92;26.73;;;1.30;99.90;;;;;;2098248;28;20028;-67
2022/03/04 05:12:15;;;;;;;39.80;27.02;;;1.30;99.90;;;;;;2095882;28;20020;-66